createdAt,value
2023-04-20T00:00:48.166Z,49.75
2023-04-20T00:01:48.187Z,50.08
2023-04-20T00:02:48.251Z,49.84
2023-04-20T00:03:48.262Z,49.67
2023-04-20T00:04:48.150Z,50.08
2023-04-20T00:05:48.133Z,49.55
2023-04-20T00:06:48.102Z,49.81
2023-04-20T00:07:48.056Z,49.75
2023-04-20T00:08:48.098Z,49.84
2023-04-20T00:09:48.058Z,49.69
2023-04-20T00:10:48.064Z,49.69
2023-04-20T00:11:48.040Z,49.84
2023-04-20T00:12:47.998Z,49.49
2023-04-20T00:13:47.996Z,49.40
2023-04-20T00:14:47.995Z,49.31
2023-04-20T00:15:47.957Z,49.23
2023-04-20T00:16:48.026Z,49.49
2023-04-20T00:17:48.006Z,49.26
2023-04-20T00:18:47.945Z,49.00
2023-04-20T00:19:47.933Z,49.20
2023-04-20T00:20:47.930Z,49.34
2023-04-20T00:21:47.905Z,49.31
2023-04-20T00:22:47.882Z,49.31
2023-04-20T00:23:47.868Z,49.17
2023-04-20T00:24:47.844Z,49.11
2023-04-20T00:25:47.853Z,49.17
2023-04-20T00:26:47.852Z,49.20
2023-04-20T00:27:47.805Z,49.40
2023-04-20T00:28:47.810Z,49.37
2023-04-20T00:29:47.787Z,49.37
2023-04-20T00:30:47.789Z,48.97
2023-04-20T00:31:47.750Z,49.05
2023-04-20T00:32:47.786Z,49.08
2023-04-20T00:33:47.739Z,49.34
2023-04-20T00:34:47.739Z,49.23
2023-04-20T00:35:47.691Z,49.61
2023-04-20T00:36:47.705Z,49.23
2023-04-20T00:37:47.687Z,49.40
2023-04-20T00:38:47.682Z,49.08
2023-04-20T00:39:47.869Z,49.58
2023-04-20T00:40:47.643Z,49.64
2023-04-20T00:41:47.632Z,49.55
2023-04-20T00:42:47.594Z,49.49
2023-04-20T00:43:47.629Z,49.40
2023-04-20T00:44:47.577Z,49.67
2023-04-20T00:45:47.660Z,49.64
2023-04-20T00:46:47.556Z,49.58
2023-04-20T00:47:47.586Z,49.52
2023-04-20T00:48:47.526Z,49.49
2023-04-20T00:49:47.513Z,49.69
2023-04-20T00:50:47.497Z,49.52
2023-04-20T00:51:47.477Z,49.58
2023-04-20T00:52:47.486Z,49.99
2023-04-20T00:53:47.444Z,49.72
2023-04-20T00:54:47.436Z,49.58
2023-04-20T00:55:47.414Z,49.78
2023-04-20T00:56:47.462Z,49.81
2023-04-20T00:57:47.408Z,49.55
2023-04-20T00:58:47.403Z,49.23
2023-04-20T00:59:47.385Z,49.40
2023-04-20T01:00:47.375Z,49.28
2023-04-20T01:01:47.410Z,49.46
2023-04-20T01:02:47.434Z,49.31
2023-04-20T01:03:47.423Z,49.46
2023-04-20T01:04:47.346Z,49.28
2023-04-20T01:05:47.311Z,49.72
2023-04-20T01:06:47.273Z,49.72
2023-04-20T01:07:47.258Z,48.77
2023-04-20T01:08:47.257Z,48.65
2023-04-20T01:09:47.233Z,49.23
2023-04-20T01:10:47.244Z,48.77
2023-04-20T01:11:47.236Z,48.63
2023-04-20T01:12:47.190Z,49.20
2023-04-20T01:13:47.231Z,48.54
2023-04-20T01:14:47.171Z,49.05
2023-04-20T01:15:47.198Z,48.68
2023-04-20T01:16:47.222Z,48.77
2023-04-20T01:17:47.171Z,48.88
2023-04-20T01:18:47.155Z,48.63
2023-04-20T01:19:47.112Z,48.80
2023-04-20T01:20:47.153Z,48.97
2023-04-20T01:21:47.081Z,48.80
2023-04-20T01:22:47.092Z,48.65
2023-04-20T01:23:47.071Z,48.71
2023-04-20T01:24:47.078Z,48.94
2023-04-20T01:25:47.029Z,48.80
2023-04-20T01:26:47.026Z,48.74
2023-04-20T01:27:47.006Z,48.65
2023-04-20T01:28:47.014Z,48.68
2023-04-20T01:29:46.998Z,48.65
2023-04-20T01:30:46.972Z,48.60
2023-04-20T01:31:46.981Z,49.03
2023-04-20T01:32:46.989Z,48.88
2023-04-20T01:33:46.940Z,48.63
2023-04-20T01:34:46.930Z,48.57
2023-04-20T01:35:46.927Z,48.83
2023-04-20T01:36:46.902Z,48.51
2023-04-20T01:37:46.862Z,48.51
2023-04-20T01:38:46.868Z,48.12
2023-04-20T01:39:46.892Z,48.40
2023-04-20T01:40:46.843Z,48.29
2023-04-20T01:41:46.833Z,48.40
2023-04-20T01:42:46.848Z,48.26
2023-04-20T01:43:46.807Z,48.24
2023-04-20T01:44:46.788Z,48.12
2023-04-20T01:45:46.787Z,48.18
2023-04-20T01:46:46.817Z,48.21
2023-04-20T01:47:46.801Z,48.12
2023-04-20T01:48:46.727Z,48.26
2023-04-20T01:49:46.736Z,48.32
2023-04-20T01:50:46.727Z,48.10
2023-04-20T01:51:46.727Z,48.04
2023-04-20T01:52:46.688Z,47.63
2023-04-20T01:53:46.717Z,48.01
2023-04-20T01:54:46.711Z,48.04
2023-04-20T01:55:46.646Z,48.07
2023-04-20T01:56:46.702Z,48.15
2023-04-20T01:57:46.625Z,47.77
2023-04-20T01:58:46.586Z,47.90
2023-04-20T01:59:46.582Z,47.96
2023-04-20T02:00:46.599Z,47.52
2023-04-20T02:01:46.582Z,47.55
2023-04-20T02:02:46.678Z,47.44
2023-04-20T02:03:46.779Z,47.44
2023-04-20T02:04:46.544Z,47.47
2023-04-20T02:05:46.545Z,47.33
2023-04-20T02:06:46.523Z,47.33
2023-04-20T02:07:46.501Z,47.23
2023-04-20T02:08:46.482Z,47.07
2023-04-20T02:09:46.442Z,47.20
2023-04-20T02:10:46.437Z,46.89
2023-04-20T02:11:46.430Z,46.89
2023-04-20T02:12:46.418Z,46.96
2023-04-20T02:13:46.428Z,47.17
2023-04-20T02:14:46.372Z,46.99
2023-04-20T02:15:46.373Z,46.68
2023-04-20T02:16:46.410Z,46.94
2023-04-20T02:17:46.366Z,47.04
2023-04-20T02:18:46.359Z,46.89
2023-04-20T02:19:46.323Z,46.78
2023-04-20T02:20:46.316Z,47.20
2023-04-20T02:21:46.314Z,46.89
2023-04-20T02:22:46.329Z,46.63
2023-04-20T02:23:46.247Z,46.94
2023-04-20T02:24:46.268Z,46.83
2023-04-20T02:25:46.302Z,47.04
2023-04-20T02:26:46.257Z,46.96
2023-04-20T02:27:46.201Z,47.02
2023-04-20T02:28:46.216Z,46.89
2023-04-20T02:29:46.193Z,46.96
2023-04-20T02:30:46.180Z,46.99
2023-04-20T02:31:46.171Z,46.99
2023-04-20T02:32:46.208Z,47.36
2023-04-20T02:33:46.137Z,47.31
2023-04-20T02:34:46.134Z,47.28
2023-04-20T02:35:46.091Z,47.17
2023-04-20T02:36:46.103Z,47.28
2023-04-20T02:37:46.077Z,47.33
2023-04-20T02:41:11.765Z,49.37
2023-04-20T02:42:12.644Z,49.00
2023-04-20T02:43:12.647Z,48.97
2023-04-20T02:44:12.633Z,49.55
2023-04-20T02:45:12.643Z,49.43
2023-04-20T02:46:12.675Z,49.40
2023-04-20T02:47:12.596Z,49.05
2023-04-20T02:48:12.625Z,49.14
2023-04-20T02:49:12.553Z,49.05
2023-04-20T02:50:12.579Z,48.88
2023-04-20T02:51:12.545Z,48.74
2023-04-20T02:52:12.549Z,48.57
2023-04-20T02:53:12.524Z,48.77
2023-04-20T02:54:12.509Z,48.54
2023-04-20T02:55:12.476Z,48.21
2023-04-20T02:56:12.499Z,48.18
2023-04-20T02:57:12.445Z,48.07
2023-04-20T02:58:12.437Z,47.55
2023-04-20T02:59:12.468Z,47.50
2023-04-20T03:00:12.435Z,47.28
2023-04-20T03:01:12.390Z,47.02
2023-04-20T03:02:12.533Z,47.02
2023-04-20T03:03:12.496Z,46.68
2023-04-20T03:04:12.410Z,46.68
2023-04-20T03:05:12.352Z,46.52
2023-04-20T03:06:12.368Z,46.52
2023-04-20T03:07:13.570Z,46.37
2023-04-20T03:08:12.308Z,46.26
2023-04-20T03:09:12.295Z,46.21
2023-04-20T03:10:12.338Z,46.47
2023-04-20T03:11:12.301Z,46.42
2023-04-20T03:12:12.284Z,46.11
2023-04-20T03:13:12.240Z,46.21
2023-04-20T03:14:12.286Z,46.06
2023-04-20T03:15:12.235Z,46.11
2023-04-20T03:16:12.239Z,46.06
2023-04-20T03:17:12.195Z,46.01
2023-04-20T03:18:12.178Z,46.21
2023-04-20T03:19:12.187Z,45.76
2023-04-20T03:20:12.184Z,45.91
2023-04-20T03:21:12.132Z,45.56
2023-04-20T03:22:12.141Z,45.27
2023-04-20T03:23:12.123Z,45.46
2023-04-20T03:24:12.148Z,45.51
2023-04-20T03:25:12.139Z,45.51
2023-04-20T03:26:12.074Z,45.07
2023-04-20T03:27:12.098Z,45.66
2023-04-20T03:28:12.032Z,45.56
2023-04-20T03:29:12.018Z,45.31
2023-04-20T03:30:12.056Z,45.22
2023-04-20T03:31:12.032Z,44.97
2023-04-20T03:32:12.044Z,45.02
2023-04-20T03:33:12.030Z,45.17
2023-04-20T03:34:12.021Z,44.74
2023-04-20T03:35:11.964Z,44.69
2023-04-20T03:36:11.941Z,44.88
2023-04-20T03:37:12.142Z,44.40
2023-04-20T03:38:11.931Z,44.40
2023-04-20T03:39:11.890Z,44.50
2023-04-20T03:40:11.905Z,44.50
2023-04-20T03:41:11.901Z,44.17
2023-04-20T03:42:11.890Z,44.12
2023-04-20T03:43:11.836Z,44.22
2023-04-20T03:44:11.868Z,43.89
2023-04-20T03:45:11.827Z,44.08
2023-04-20T03:46:11.820Z,43.66
2023-04-20T03:47:11.796Z,43.71
2023-04-20T03:48:11.788Z,43.35
2023-04-20T03:49:11.809Z,43.26
2023-04-20T03:50:11.746Z,42.99
2023-04-20T03:51:11.769Z,42.86
2023-04-20T03:52:11.755Z,43.12
2023-04-20T03:53:11.713Z,43.21
2023-04-20T03:54:11.700Z,43.03
2023-04-20T03:55:11.699Z,42.99
2023-04-20T03:56:11.702Z,42.69
2023-04-20T03:57:11.681Z,42.95
2023-04-20T03:58:11.664Z,42.99
2023-04-20T03:59:11.645Z,42.95
2023-04-20T04:00:11.628Z,43.03
2023-04-20T04:01:11.614Z,42.77
2023-04-20T04:02:11.654Z,42.77
2023-04-20T04:03:11.719Z,42.82
2023-04-20T04:04:11.971Z,42.86
2023-04-20T04:05:11.626Z,43.03
2023-04-20T04:06:11.592Z,43.12
2023-04-20T04:07:11.579Z,43.08
2023-04-20T04:08:11.519Z,42.99
2023-04-20T04:09:11.508Z,43.08
2023-04-20T04:10:11.534Z,43.03
2023-04-20T04:11:11.507Z,43.21
2023-04-20T04:12:11.485Z,43.21
2023-04-20T04:13:11.474Z,43.12
2023-04-20T04:14:11.422Z,43.17
2023-04-20T04:15:11.482Z,42.99
2023-04-20T04:16:11.396Z,43.17
2023-04-20T04:17:11.431Z,42.73
2023-04-20T04:18:11.379Z,42.86
2023-04-20T04:19:11.390Z,42.60
2023-04-20T04:20:11.382Z,42.60
2023-04-20T04:21:11.340Z,42.30
2023-04-20T04:22:11.368Z,42.64
2023-04-20T04:23:11.357Z,42.64
2023-04-20T04:24:11.298Z,42.60
2023-04-20T04:25:11.327Z,42.73
2023-04-20T04:26:11.284Z,42.82
2023-04-20T04:27:11.283Z,42.90
2023-04-20T04:28:11.297Z,42.86
2023-04-20T04:29:11.237Z,42.86
2023-04-20T04:30:11.239Z,43.03
2023-04-20T04:31:11.248Z,42.95
2023-04-20T04:32:11.230Z,42.73
2023-04-20T04:33:11.219Z,43.12
2023-04-20T04:34:11.170Z,42.86
2023-04-20T04:35:11.199Z,42.90
2023-04-20T04:36:11.176Z,43.17
2023-04-20T04:37:11.183Z,43.30
2023-04-20T04:38:11.112Z,43.26
2023-04-20T04:39:11.116Z,43.08
2023-04-20T04:40:11.155Z,43.30
2023-04-20T04:41:11.076Z,43.30
2023-04-20T04:42:11.072Z,43.30
2023-04-20T04:43:11.054Z,43.39
2023-04-20T04:44:11.036Z,43.57
2023-04-20T04:45:11.028Z,43.57
2023-04-20T04:46:11.119Z,43.66
2023-04-20T04:47:10.994Z,43.80
2023-04-20T04:48:11.107Z,43.89
2023-04-20T04:49:10.982Z,44.08
2023-04-20T04:50:11.013Z,43.94
2023-04-20T04:51:10.957Z,43.98
2023-04-20T04:52:10.924Z,43.89
2023-04-20T04:53:10.942Z,43.80
2023-04-20T04:54:10.919Z,43.66
2023-04-20T04:55:10.914Z,43.39
2023-04-20T04:56:10.894Z,43.17
2023-04-20T04:57:10.879Z,43.21
2023-04-20T04:58:10.865Z,43.17
2023-04-20T04:59:10.876Z,43.12
2023-04-20T05:00:10.840Z,42.90
2023-04-20T05:01:10.848Z,42.99
2023-04-20T05:02:10.871Z,43.17
2023-04-20T05:03:10.873Z,43.26
2023-04-20T05:04:10.920Z,43.21
2023-04-20T05:05:10.786Z,42.99
2023-04-20T05:06:10.779Z,42.99
2023-04-20T05:07:10.742Z,42.82
2023-04-20T05:08:10.725Z,43.08
2023-04-20T05:09:10.720Z,42.99
2023-04-20T05:10:10.720Z,42.82
2023-04-20T05:11:10.720Z,42.82
2023-04-20T05:12:10.702Z,42.82
2023-04-20T05:13:10.675Z,43.03
2023-04-20T05:14:10.674Z,43.17
2023-04-20T05:15:10.648Z,43.39
2023-04-20T05:16:10.666Z,43.39
2023-04-20T05:17:10.614Z,43.44
2023-04-20T05:18:10.575Z,43.17
2023-04-20T05:19:10.594Z,43.21
2023-04-20T05:20:10.615Z,43.03
2023-04-20T05:21:10.561Z,42.64
2023-04-20T05:22:10.534Z,42.73
2023-04-20T05:23:10.559Z,42.95
2023-04-20T05:24:10.492Z,42.86
2023-04-20T05:25:12.193Z,43.08
2023-04-20T05:26:10.492Z,43.03
2023-04-20T05:27:10.520Z,43.17
2023-04-20T05:28:10.478Z,43.35
2023-04-20T05:29:10.462Z,43.44
2023-04-20T05:30:20.726Z,43.53
2023-04-20T05:31:10.437Z,43.66
2023-04-20T05:32:10.458Z,43.71
2023-04-20T05:33:10.445Z,44.36
2023-04-20T05:34:10.391Z,44.17
2023-04-20T05:35:10.375Z,44.50
2023-04-20T05:36:10.383Z,44.83
2023-04-20T05:37:10.352Z,45.27
2023-04-20T05:38:10.383Z,45.56
2023-04-20T05:39:10.321Z,46.26
2023-04-20T05:40:10.300Z,46.68
2023-04-20T05:41:10.302Z,46.89
2023-04-20T05:42:10.280Z,47.33
2023-04-20T05:43:10.288Z,47.58
2023-04-20T05:44:10.250Z,48.15
2023-04-20T05:45:10.252Z,48.46
2023-04-20T05:46:10.232Z,48.63
2023-04-20T05:47:10.207Z,48.43
2023-04-20T05:48:10.191Z,48.91
2023-04-20T05:49:10.181Z,48.74
2023-04-20T05:50:10.173Z,48.60
2023-04-20T05:51:10.213Z,48.49
2023-04-20T05:52:10.143Z,48.49
2023-04-20T05:53:10.172Z,48.68
2023-04-20T05:54:10.099Z,48.80
2023-04-20T05:55:10.122Z,48.60
2023-04-20T05:56:10.100Z,48.51
2023-04-20T05:57:10.089Z,48.57
2023-04-20T05:58:10.093Z,48.54
2023-04-20T05:59:10.075Z,48.65
2023-04-20T06:00:10.041Z,48.68
2023-04-20T06:01:10.025Z,48.54
2023-04-20T06:02:10.152Z,49.05
2023-04-20T06:03:10.298Z,49.00
2023-04-20T06:04:10.269Z,49.26
2023-04-20T06:05:10.258Z,49.84
2023-04-20T06:06:10.007Z,50.29
2023-04-20T06:07:09.958Z,51.37
2023-04-20T06:08:09.973Z,52.04
2023-04-20T06:09:09.916Z,52.50
2023-04-20T06:10:09.892Z,53.57
2023-04-20T06:11:09.986Z,53.78
2023-04-20T06:12:09.917Z,54.41
2023-04-20T06:13:09.873Z,54.87
2023-04-20T06:14:09.856Z,54.80
2023-04-20T06:15:09.878Z,55.05
2023-04-20T06:16:09.956Z,55.05
2023-04-20T06:17:09.803Z,55.38
2023-04-20T06:18:09.897Z,55.71
2023-04-20T06:19:09.791Z,56.01
2023-04-20T06:20:09.805Z,56.08
2023-04-20T06:21:09.781Z,56.65
2023-04-20T06:22:09.775Z,56.88
2023-04-20T06:23:09.747Z,57.63
2023-04-20T06:24:09.729Z,57.91
2023-04-20T06:25:09.702Z,58.15
2023-04-20T06:26:09.714Z,58.31
2023-04-20T06:27:09.707Z,57.99
2023-04-20T06:28:09.681Z,58.11
2023-04-20T06:29:09.653Z,57.79
2023-04-20T06:30:09.648Z,57.91
2023-04-20T06:31:09.687Z,58.35
2023-04-20T06:32:09.594Z,58.84
2023-04-20T06:33:12.262Z,59.38
2023-04-20T06:34:09.596Z,59.64
2023-04-20T06:35:09.634Z,59.98
2023-04-20T06:36:09.578Z,60.72
2023-04-20T06:37:09.536Z,60.54
2023-04-20T06:38:09.523Z,60.59
2023-04-20T06:39:09.527Z,60.54
2023-04-20T06:40:09.582Z,60.68
2023-04-20T06:41:09.484Z,60.94
2023-04-20T06:42:09.480Z,61.12
2023-04-20T06:43:09.459Z,61.12
2023-04-20T06:44:09.434Z,60.94
2023-04-20T06:45:09.456Z,61.39
2023-04-20T06:46:09.446Z,61.66
2023-04-20T06:47:09.589Z,62.81
2023-04-20T06:48:20.148Z,63.29
2023-04-20T06:49:09.395Z,64.16
2023-04-20T06:50:09.854Z,65.42
2023-04-20T06:51:09.354Z,66.45
2023-04-20T06:52:09.330Z,67.15
2023-04-20T06:53:09.361Z,67.91
2023-04-20T06:54:09.301Z,68.46
2023-04-20T06:55:09.325Z,69.03
2023-04-20T06:56:09.293Z,70.72
2023-04-20T06:57:09.300Z,71.44
2023-04-20T06:58:09.272Z,72.75
2023-04-20T06:59:09.271Z,73.64
2023-04-20T07:00:09.251Z,74.89
2023-04-20T07:01:09.317Z,76.19
2023-04-20T07:02:09.431Z,77.89
2023-04-20T07:03:09.249Z,78.84
2023-04-20T07:04:09.324Z,81.53
2023-04-20T07:05:09.188Z,86.23
2023-04-20T07:06:09.153Z,88.97
2023-04-20T07:07:09.207Z,90.91
2023-04-20T07:08:09.138Z,93.23
2023-04-20T07:09:09.123Z,94.18
2023-04-20T07:10:09.128Z,94.28
2023-04-20T07:11:09.150Z,95.99
2023-04-20T07:12:09.066Z,98.88
2023-04-20T07:13:09.054Z,99.11
2023-04-20T07:14:09.082Z,100.30
2023-04-20T07:15:09.036Z,99.64
2023-04-20T07:16:09.045Z,102.13
2023-04-20T07:17:09.027Z,101.95
2023-04-20T07:18:09.031Z,102.76
2023-04-20T07:19:08.998Z,101.21
2023-04-20T07:20:09.011Z,100.66
2023-04-20T07:21:08.946Z,100.42
2023-04-20T07:22:08.930Z,100.36
2023-04-20T07:23:08.939Z,102.13
2023-04-20T07:24:08.918Z,103.46
2023-04-20T07:25:08.984Z,104.62
2023-04-20T07:26:08.883Z,107.37
2023-04-20T07:27:08.909Z,110.20
2023-04-20T07:28:08.869Z,108.98
2023-04-20T07:29:08.881Z,108.69
2023-04-20T07:30:09.004Z,107.30
2023-04-20T07:31:08.826Z,106.62
2023-04-20T07:32:08.884Z,106.96
2023-04-20T07:33:08.843Z,107.10
2023-04-20T07:34:08.791Z,107.65
2023-04-20T07:35:08.774Z,107.58
2023-04-20T07:36:08.742Z,107.17
2023-04-20T07:37:08.824Z,107.10
2023-04-20T07:38:08.743Z,107.51
2023-04-20T07:39:08.732Z,106.42
2023-04-20T07:40:08.728Z,105.74
2023-04-20T07:41:08.718Z,105.01
2023-04-20T07:42:08.695Z,104.30
2023-04-20T07:43:08.688Z,103.78
2023-04-20T07:44:08.668Z,104.56
2023-04-20T07:45:08.672Z,105.01
2023-04-20T07:46:08.678Z,109.48
2023-04-20T07:47:08.648Z,111.44
2023-04-20T07:48:08.639Z,112.11
2023-04-20T07:49:08.613Z,113.10
2023-04-20T07:50:08.623Z,113.87
2023-04-20T07:51:08.580Z,111.52
2023-04-20T07:52:16.270Z,111.22
2023-04-20T07:53:08.565Z,111.74
2023-04-20T07:54:08.539Z,112.04
2023-04-20T07:55:08.526Z,115.60
2023-04-20T07:56:08.501Z,118.46
2023-04-20T07:57:08.489Z,119.56
2023-04-20T07:58:08.488Z,121.29
2023-04-20T07:59:08.472Z,125.28
2023-04-20T08:00:08.430Z,127.47
2023-04-20T08:01:08.425Z,130.05
2023-04-20T08:02:08.616Z,137.07
2023-04-20T08:03:08.793Z,142.67
2023-04-20T08:04:08.674Z,146.93
2023-04-20T08:05:08.584Z,151.58
2023-04-20T08:06:08.342Z,163.73
2023-04-20T08:07:08.346Z,172.32
2023-04-20T08:08:08.326Z,179.14
2023-04-20T08:09:08.306Z,189.76
2023-04-20T08:10:08.332Z,198.93
2023-04-20T08:11:08.291Z,211.04
2023-04-20T08:12:08.271Z,217.45
2023-04-20T08:13:08.277Z,226.57
2023-04-20T08:14:08.251Z,237.18
2023-04-20T08:15:08.242Z,239.42
2023-04-20T08:16:08.294Z,242.24
2023-04-20T08:17:08.220Z,243.67
2023-04-20T08:18:08.241Z,253.03
2023-04-20T08:19:08.158Z,266.11
2023-04-20T08:20:08.181Z,273.63
2023-04-20T08:21:08.143Z,275.46
2023-04-20T08:22:08.150Z,280.39
2023-04-20T08:23:08.109Z,289.25
2023-04-20T08:24:08.102Z,296.55
2023-04-20T08:25:08.108Z,307.05
2023-04-20T08:26:08.218Z,320.81
2023-04-20T08:27:08.069Z,329.15
2023-04-20T08:28:11.934Z,338.27
2023-04-20T08:29:08.238Z,348.29
2023-04-20T08:30:08.048Z,359.70
2023-04-20T08:31:08.069Z,369.39
2023-04-20T08:32:07.994Z,374.00
2023-04-20T08:33:08.011Z,381.17
2023-04-20T08:34:07.971Z,377.43
2023-04-20T08:35:08.004Z,379.44
2023-04-20T08:36:08.011Z,376.14
2023-04-20T08:37:08.070Z,374.85
2023-04-20T08:38:07.940Z,376.57
2023-04-20T08:39:08.032Z,373.58
2023-04-20T08:40:07.900Z,370.22
2023-04-20T08:41:07.945Z,365.69
2023-04-20T08:42:07.882Z,362.47
2023-04-20T08:43:07.877Z,358.14
2023-04-20T08:44:07.867Z,355.43
2023-04-20T08:45:07.841Z,346.82
2023-04-20T08:46:07.875Z,335.86
2023-04-20T08:47:07.923Z,323.01
2023-04-20T08:48:07.817Z,317.72
2023-04-20T08:49:07.789Z,313.78
2023-04-20T08:50:07.764Z,307.34
2023-04-20T08:51:07.778Z,297.08
2023-04-20T08:52:07.737Z,282.31
2023-04-20T08:53:07.748Z,270.49
2023-04-20T08:54:07.709Z,258.39
2023-04-20T08:55:07.684Z,248.07
2023-04-20T08:56:07.674Z,238.55
2023-04-20T08:57:07.676Z,230.86
2023-04-20T08:58:07.828Z,220.36
2023-04-20T08:59:07.695Z,209.69
2023-04-20T09:00:07.633Z,201.98
2023-04-20T09:01:07.600Z,196.09
2023-04-20T09:02:07.767Z,189.76
2023-04-20T09:03:07.811Z,184.96
2023-04-20T09:04:07.805Z,183.26
2023-04-20T09:05:07.671Z,179.34
2023-04-20T09:06:07.585Z,175.76
2023-04-20T09:07:07.529Z,171.79
2023-04-20T09:08:07.537Z,166.34
2023-04-20T09:09:07.515Z,161.52
2023-04-20T09:10:07.495Z,157.42
2023-04-20T09:11:07.483Z,152.27
2023-04-20T09:12:07.892Z,149.55
2023-04-20T09:13:07.573Z,145.27
2023-04-20T09:14:07.427Z,142.67
2023-04-20T09:15:07.459Z,141.47
2023-04-20T09:16:07.467Z,139.00
2023-04-20T09:17:07.405Z,137.97
2023-04-20T09:18:07.430Z,135.63
2023-04-20T09:19:09.032Z,132.62
2023-04-20T09:20:07.368Z,129.54
2023-04-20T09:21:07.342Z,128.85
2023-04-20T09:22:07.351Z,128.16
2023-04-20T09:23:07.317Z,126.61
2023-04-20T09:24:07.297Z,123.71
2023-04-20T09:25:07.295Z,122.17
2023-04-20T09:26:07.351Z,119.99
2023-04-20T09:27:07.257Z,119.22
2023-04-20T09:28:07.298Z,117.54
2023-04-20T09:29:07.243Z,116.00
2023-04-20T09:30:07.239Z,116.64
2023-04-20T09:31:07.231Z,119.05
2023-04-20T09:32:07.334Z,118.71
2023-04-20T09:33:07.277Z,117.71
2023-04-20T09:34:07.341Z,115.52
2023-04-20T09:35:07.160Z,114.88
2023-04-20T09:36:07.147Z,113.56
2023-04-20T09:37:07.430Z,113.87
2023-04-20T09:38:07.129Z,113.10
2023-04-20T09:39:07.142Z,113.25
2023-04-20T09:40:07.085Z,113.64
2023-04-20T09:41:07.103Z,116.64
2023-04-20T09:42:07.064Z,119.90
2023-04-20T09:43:07.050Z,123.25
2023-04-20T09:44:07.052Z,126.99
2023-04-20T09:45:07.071Z,130.15
2023-04-20T09:46:07.034Z,132.31
2023-04-20T09:47:07.039Z,140.76
2023-04-20T09:48:07.076Z,142.19
2023-04-20T09:49:07.005Z,142.67
2023-04-20T09:50:18.543Z,150.49
2023-04-20T09:51:06.992Z,158.17
2023-04-20T09:52:06.972Z,165.84
2023-04-20T09:53:06.935Z,174.30
2023-04-20T09:54:06.933Z,185.49
2023-04-20T09:55:06.876Z,192.08
2023-04-20T09:56:06.869Z,204.74
2023-04-20T09:57:06.876Z,219.91
2023-04-20T09:58:06.870Z,238.03
2023-04-20T09:59:06.859Z,251.87
2023-04-20T10:00:06.830Z,273.18
2023-04-20T10:01:06.835Z,287.49
2023-04-20T10:02:06.939Z,293.90
2023-04-20T10:03:06.950Z,309.36
2023-04-20T10:04:06.953Z,324.92
2023-04-20T10:05:06.775Z,338.27
2023-04-20T10:06:06.730Z,341.43
2023-04-20T10:07:06.747Z,350.89
2023-04-20T10:08:06.748Z,359.31
2023-04-20T10:09:06.724Z,372.31
2023-04-20T10:10:06.695Z,384.67
2023-04-20T10:11:06.691Z,391.88
2023-04-20T10:12:06.712Z,396.76
2023-04-20T10:13:06.666Z,401.76
2023-04-20T10:14:06.634Z,407.63
2023-04-20T10:15:06.619Z,411.89
2023-04-20T10:16:06.610Z,409.13
2023-04-20T10:17:06.790Z,407.14
2023-04-20T10:18:06.737Z,415.48
2023-04-20T10:19:08.904Z,416.25
2023-04-20T10:20:06.561Z,424.97
2023-04-20T10:21:06.583Z,421.23
2023-04-20T10:22:06.533Z,417.03
2023-04-20T10:23:06.562Z,418.33
2023-04-20T10:24:06.484Z,430.99
2023-04-20T10:25:06.518Z,443.27
2023-04-20T10:26:06.490Z,457.19
2023-04-20T10:27:06.453Z,473.69
2023-04-20T10:28:06.475Z,475.04
2023-04-20T10:29:06.442Z,482.23
2023-04-20T10:30:06.464Z,498.76
2023-04-20T10:31:06.469Z,508.22
2023-04-20T10:32:06.396Z,514.47
2023-04-20T10:33:06.423Z,519.26
2023-04-20T10:34:06.384Z,522.51
2023-04-20T10:35:06.416Z,538.91
2023-04-20T10:36:06.376Z,539.35
2023-04-20T10:37:06.446Z,553.16
2023-04-20T10:38:06.293Z,560.11
2023-04-20T10:39:06.300Z,564.36
2023-04-20T10:40:07.922Z,562.46
2023-04-20T10:41:06.284Z,569.16
2023-04-20T10:42:06.270Z,574.53
2023-04-20T10:43:06.262Z,584.06
2023-04-20T10:44:06.245Z,590.76
2023-04-20T10:45:06.210Z,596.02
2023-04-20T10:46:06.224Z,598.15
2023-04-20T10:47:06.214Z,594.43
2023-04-20T10:48:06.210Z,587.65
2023-04-20T10:49:06.155Z,585.59
2023-04-20T10:50:06.175Z,589.72
2023-04-20T10:51:06.134Z,589.72
2023-04-20T10:52:06.187Z,600.84
2023-04-20T10:53:06.097Z,591.80
2023-04-20T10:54:06.129Z,605.18
2023-04-20T10:55:06.085Z,601.92
2023-04-20T10:56:06.078Z,606.28
2023-04-20T10:57:06.171Z,599.76
2023-04-20T10:58:06.050Z,604.63
2023-04-20T10:59:06.044Z,604.63
2023-04-20T11:00:06.047Z,605.73
2023-04-20T11:01:05.986Z,606.28
2023-04-20T11:02:06.119Z,605.18
2023-04-20T11:03:06.033Z,613.50
2023-04-20T11:04:05.972Z,622.05
2023-04-20T11:05:05.978Z,627.30
2023-04-20T11:06:05.950Z,622.05
2023-04-20T11:07:05.900Z,626.71
2023-04-20T11:08:05.915Z,632.64
2023-04-20T11:09:05.895Z,633.24
2023-04-20T11:10:05.871Z,624.96
2023-04-20T11:11:05.882Z,631.44
2023-04-20T11:12:05.864Z,633.84
2023-04-20T11:13:05.848Z,633.24
2023-04-20T11:14:05.864Z,629.66
2023-04-20T11:15:05.833Z,623.21
2023-04-20T11:16:05.832Z,620.90
2023-04-20T11:17:05.825Z,619.75
2023-04-20T11:18:05.815Z,619.18
2023-04-20T11:19:05.791Z,619.18
2023-04-20T11:20:05.739Z,612.94
2023-04-20T11:21:05.716Z,621.48
2023-04-20T11:22:05.715Z,623.79
2023-04-20T11:23:05.742Z,626.13
2023-04-20T11:24:05.681Z,627.30
2023-04-20T11:25:05.678Z,632.04
2023-04-20T11:26:05.680Z,631.44
2023-04-20T11:27:05.702Z,626.71
2023-04-20T11:28:05.644Z,615.76
2023-04-20T11:29:05.634Z,617.46
2023-04-20T11:30:05.647Z,607.38
2023-04-20T11:31:05.670Z,602.46
2023-04-20T11:32:05.655Z,591.80
2023-04-20T11:33:05.700Z,595.49
2023-04-20T11:34:07.138Z,585.08
2023-04-20T11:35:06.992Z,586.10
2023-04-20T11:36:05.553Z,588.16
2023-04-20T11:37:05.538Z,578.01
2023-04-20T11:38:05.502Z,573.55
2023-04-20T11:39:05.474Z,568.19
2023-04-20T11:40:05.558Z,573.55
2023-04-20T11:41:05.472Z,577.01
2023-04-20T11:42:05.480Z,584.06
2023-04-20T11:43:05.434Z,594.96
2023-04-20T11:44:05.436Z,594.43
2023-04-20T11:45:05.427Z,593.90
2023-04-20T11:46:05.403Z,589.72
2023-04-20T11:47:05.371Z,607.38
2023-04-20T11:48:05.434Z,603.00
2023-04-20T11:49:05.361Z,603.00
2023-04-20T11:50:05.359Z,596.02
2023-04-20T11:51:05.308Z,601.38
2023-04-20T11:52:05.318Z,606.28
2023-04-20T11:53:05.319Z,611.26
2023-04-20T11:54:05.302Z,626.71
2023-04-20T11:55:05.249Z,637.46
2023-04-20T11:56:05.249Z,646.07
2023-04-20T11:57:05.277Z,658.79
2023-04-20T11:58:05.236Z,663.36
2023-04-20T11:59:05.219Z,665.34
2023-04-20T12:00:05.200Z,662.05
2023-04-20T12:01:05.237Z,667.99
2023-04-20T12:02:05.215Z,678.15
2023-04-20T12:03:05.322Z,678.15
2023-04-20T12:04:05.522Z,695.05
2023-04-20T12:05:05.229Z,712.81
2023-04-20T12:06:05.120Z,717.40
2023-04-20T12:07:05.107Z,724.38
2023-04-20T12:08:05.083Z,736.34
2023-04-20T12:09:05.083Z,741.23
2023-04-20T12:10:05.091Z,741.23
2023-04-20T12:11:05.063Z,742.88
2023-04-20T12:12:05.036Z,734.72
2023-04-20T12:13:05.034Z,729.12
2023-04-20T12:14:05.038Z,737.96
2023-04-20T12:15:04.984Z,739.59
2023-04-20T12:16:05.017Z,753.66
2023-04-20T12:17:05.001Z,794.78
2023-04-20T12:18:05.001Z,825.12
2023-04-20T12:19:04.936Z,857.87
2023-04-20T12:20:04.939Z,865.07
2023-04-20T12:21:04.913Z,861.18
2023-04-20T12:22:11.480Z,853.50
2023-04-20T12:23:12.631Z,847.03
2023-04-20T12:24:12.660Z,845.96
2023-04-20T12:25:04.878Z,847.56
2023-04-20T12:26:04.837Z,849.18
2023-04-20T12:27:04.921Z,842.77
2023-04-20T12:28:04.849Z,855.68
2023-04-20T12:29:04.828Z,866.19
2023-04-20T12:30:04.824Z,883.32
2023-04-20T12:31:04.829Z,884.49
2023-04-20T12:32:04.777Z,885.66
2023-04-20T12:33:04.796Z,878.11
2023-04-20T12:34:04.800Z,875.82
2023-04-20T12:35:04.745Z,871.83
2023-04-20T12:36:04.719Z,860.63
2023-04-20T12:37:04.708Z,852.96
2023-04-20T12:38:04.708Z,854.05
2023-04-20T12:39:04.698Z,866.19
2023-04-20T12:40:04.660Z,872.96
2023-04-20T12:41:04.661Z,896.92
2023-04-20T12:42:04.635Z,919.07
2023-04-20T12:43:04.607Z,954.41
2023-04-20T12:44:06.664Z,986.74